Time;durP1;ratioP1;P1;durP2;ratioP2;P2;SDS_P1;SDS_P2;PMS_P1;PMS_P2;Temp;Humidity;BMP_temperature;BMP_pressure;BME280_temperature;BME280_humidity;BME280_pressure;Samples;Min_cycle;Max_cycle;Signal;HPM_P1;HPM_P2
2021/12/15 00:01:51;;;;;;;;;;;9.90;86.70;;;;;;4972291;28;19934;-83
2021/12/15 00:04:19;;;;;;;;;;;9.90;86.70;;;;;;4972757;28;20504;-82
2021/12/15 00:06:47;;;;;;;;;;;9.80;86.80;;;;;;4973063;28;19926;-83
2021/12/15 00:09:15;;;;;;;;;;;9.80;86.50;;;;;;4972454;28;19927;-82
2021/12/15 00:11:45;;;;;;;;;;;9.80;86.60;;;;;;4972120;28;20380;-83
2021/12/15 00:14:15;;;;;;;;;;;9.80;86.60;;;;;;4977637;28;20403;-83
2021/12/15 00:16:44;;;;;;;;;;;9.80;86.80;;;;;;4987248;28;19926;-83
2021/12/15 00:19:12;;;;;;;;;;;9.80;86.90;;;;;;4972290;28;19941;-84
2021/12/15 00:21:40;;;;;;;;;;;9.70;87.00;;;;;;4971942;28;19926;-83
2021/12/15 00:24:08;;;;;;;;;;;9.80;87.10;;;;;;4972480;28;19934;-83
2021/12/15 00:26:36;;;;;;;;;;;9.70;87.00;;;;;;4972743;28;19941;-84
2021/12/15 00:29:05;;;;;;;;;;;9.70;87.00;;;;;;4971001;28;19933;-84
2021/12/15 00:31:34;;;;;;;;;;;9.70;87.00;;;;;;4972629;28;19930;-83
2021/12/15 00:34:04;;;;;;;;;;;9.70;87.00;;;;;;4955491;28;19930;-83
2021/12/15 00:36:32;;;;;;;;;;;9.70;86.60;;;;;;4954742;28;19945;-82
2021/12/15 00:39:00;;;;;;;;;;;9.80;86.50;;;;;;4973131;28;19933;-82
2021/12/15 00:41:28;;;;;;;;;;;9.80;86.40;;;;;;4952531;28;19934;-83
2021/12/15 00:43:55;;;;;;;;;;;9.80;86.40;;;;;;4955143;28;19926;-83
2021/12/15 00:46:23;;;;;;;;;;;9.80;86.50;;;;;;4972851;28;20431;-84
2021/12/15 00:48:50;;;;;;;;;;;9.80;86.40;;;;;;4972281;28;19926;-84
2021/12/15 00:51:19;;;;;;;;;;;9.80;86.40;;;;;;4972604;28;19937;-84
2021/12/15 00:53:46;;;;;;;;;;;9.70;86.40;;;;;;4955408;28;19930;-83
2021/12/15 00:56:14;;;;;;;;;;;9.80;86.50;;;;;;4971794;28;19927;-83
2021/12/15 00:58:44;;;;;;;;;;;9.70;86.70;;;;;;4954608;28;19933;-82
2021/12/15 01:01:11;;;;;;;;;;;9.70;86.70;;;;;;4954914;28;19926;-84
2021/12/15 01:03:39;;;;;;;;;;;9.70;86.70;;;;;;4971876;28;19930;-83
2021/12/15 01:06:09;;;;;;;;;;;9.70;86.70;;;;;;4955044;28;19926;-83
2021/12/15 01:08:42;;;;;;;;;;;9.70;86.90;;;;;;4952523;28;19933;-83
2021/12/15 01:11:24;;;;;;;;;;;9.70;87.00;;;;;;4969240;28;19918;-83
2021/12/15 01:22:15;;;;;;;;;;;9.70;86.70;;;;;;4974785;28;19926;-84
2021/12/15 01:24:43;;;;;;;;;;;9.60;86.60;;;;;;4957719;28;19930;-82
2021/12/15 01:27:13;;;;;;;;;;;9.60;86.50;;;;;;4943809;28;19926;-83
2021/12/15 01:29:41;;;;;;;;;;;9.70;86.40;;;;;;4975250;28;19926;-85
2021/12/15 01:32:09;;;;;;;;;;;9.60;86.20;;;;;;4975037;28;19926;-84
2021/12/15 01:34:36;;;;;;;;;;;9.70;86.10;;;;;;4939183;28;19926;-84
2021/12/15 01:37:04;;;;;;;;;;;9.70;85.90;;;;;;4951484;28;20299;-85
2021/12/15 01:39:32;;;;;;;;;;;9.70;85.30;;;;;;4955555;28;19945;-86
2021/12/15 01:41:59;;;;;;;;;;;9.70;85.10;;;;;;4974967;28;19930;-84
2021/12/15 01:46:59;;;;;;;;;;;9.60;85.30;;;;;;4954831;28;19933;-83
2021/12/15 01:49:29;;;;;;;;;;;9.60;85.40;;;;;;4972692;28;20295;-85
2021/12/15 01:51:59;;;;;;;;;;;9.50;85.30;;;;;;4974026;28;19949;-84
2021/12/15 01:54:27;;;;;;;;;;;9.60;85.50;;;;;;4972829;28;19926;-84
2021/12/15 01:56:55;;;;;;;;;;;9.60;85.40;;;;;;4975018;28;19926;-84
2021/12/15 01:59:24;;;;;;;;;;;9.60;85.40;;;;;;4955513;28;19942;-84
2021/12/15 02:01:52;;;;;;;;;;;9.60;85.30;;;;;;4955936;28;20418;-85
2021/12/15 02:04:19;;;;;;;;;;;9.60;85.30;;;;;;4974783;28;19926;-84
2021/12/15 02:06:48;;;;;;;;;;;9.60;85.20;;;;;;4957041;28;19930;-82
2021/12/15 02:09:26;;;;;;;;;;;9.60;85.00;;;;;;4957345;28;19933;-83
2021/12/15 02:11:54;;;;;;;;;;;9.60;85.00;;;;;;4975397;28;19926;-84
2021/12/15 02:14:21;;;;;;;;;;;9.50;85.20;;;;;;4973649;28;19930;-83
2021/12/15 02:16:49;;;;;;;;;;;9.30;85.40;;;;;;4941144;28;19930;-83
2021/12/15 02:19:17;;;;;;;;;;;9.30;85.50;;;;;;4954757;28;19926;-84
2021/12/15 02:21:45;;;;;;;;;;;9.30;85.60;;;;;;4956636;28;19927;-84
2021/12/15 02:24:12;;;;;;;;;;;9.30;85.60;;;;;;4974150;28;19925;-84
2021/12/15 02:26:45;;;;;;;;;;;9.40;85.50;;;;;;4974163;28;19937;-84
2021/12/15 02:29:17;;;;;;;;;;;9.40;85.30;;;;;;4954267;28;20343;-82
2021/12/15 02:39:34;;;;;;;;;;;9.50;85.30;;;;;;4954520;28;19934;-83
2021/12/15 02:42:02;;;;;;;;;;;9.40;85.30;;;;;;4956470;28;19937;-83
2021/12/15 02:44:30;;;;;;;;;;;9.50;85.10;;;;;;4954674;28;19926;-79
2021/12/15 02:46:58;;;;;;;;;;;9.50;85.30;;;;;;4966358;28;20385;-81
2021/12/15 02:49:27;;;;;;;;;;;9.40;85.20;;;;;;4976014;28;19930;-80
2021/12/15 02:51:59;;;;;;;;;;;9.50;85.20;;;;;;4982100;28;19933;-79
2021/12/15 02:54:27;;;;;;;;;;;9.30;85.30;;;;;;4973839;28;19926;-79
2021/12/15 02:56:57;;;;;;;;;;;9.30;85.50;;;;;;4973605;28;19926;-80
2021/12/15 02:59:30;;;;;;;;;;;9.30;85.60;;;;;;4973625;28;19926;-83
2021/12/15 03:04:50;;;;;;;;;;;9.30;85.60;;;;;;4972806;28;19926;-83
2021/12/15 03:07:32;;;;;;;;;;;9.30;85.70;;;;;;4970935;28;19933;-83
2021/12/15 03:18:19;;;;;;;;;;;9.30;86.10;;;;;;4973106;28;19930;-83
2021/12/15 03:20:50;;;;;;;;;;;9.30;86.20;;;;;;4987961;28;19934;-83
2021/12/15 03:23:32;;;;;;;;;;;9.30;86.30;;;;;;4972939;28;20264;-83
2021/12/15 03:26:00;;;;;;;;;;;9.30;86.30;;;;;;4951771;28;19926;-83
2021/12/15 03:39:29;;;;;;;;;;;9.30;86.60;;;;;;4971745;28;19933;-84
2021/12/15 03:42:01;;;;;;;;;;;9.30;86.80;;;;;;4955682;28;19926;-82
2021/12/15 03:44:31;;;;;;;;;;;9.30;86.90;;;;;;4972392;28;19934;-83
2021/12/15 03:46:59;;;;;;;;;;;9.30;87.00;;;;;;4973350;28;19926;-83
2021/12/15 03:49:26;;;;;;;;;;;9.20;87.00;;;;;;4972894;28;19926;-82
2021/12/15 03:51:54;;;;;;;;;;;9.10;87.20;;;;;;4973117;28;20347;-82
2021/12/15 03:54:21;;;;;;;;;;;9.00;87.50;;;;;;4973193;28;20285;-82
2021/12/15 03:56:49;;;;;;;;;;;8.90;87.60;;;;;;4972968;28;19926;-83
2021/12/15 03:59:19;;;;;;;;;;;8.80;87.80;;;;;;4987452;28;19930;-84
2021/12/15 04:01:46;;;;;;;;;;;8.80;87.90;;;;;;4973225;28;19926;-83
2021/12/15 04:04:14;;;;;;;;;;;8.80;87.90;;;;;;4972863;28;19930;-83
2021/12/15 04:06:42;;;;;;;;;;;8.80;87.90;;;;;;4972990;28;19933;-83
2021/12/15 04:09:10;;;;;;;;;;;8.80;87.80;;;;;;4972983;28;19960;-83
2021/12/15 04:11:38;;;;;;;;;;;8.80;87.80;;;;;;4972381;28;19926;-83
2021/12/15 04:14:09;;;;;;;;;;;8.80;87.80;;;;;;4972807;28;19933;-84
2021/12/15 04:19:06;;;;;;;;;;;8.80;87.90;;;;;;4955579;28;19930;-84
2021/12/15 04:21:36;;;;;;;;;;;8.80;87.80;;;;;;4969350;28;19930;-84
2021/12/15 04:24:04;;;;;;;;;;;8.80;87.70;;;;;;4956728;28;19937;-83
2021/12/15 04:26:32;;;;;;;;;;;8.80;87.60;;;;;;4974956;28;19926;-84
2021/12/15 04:28:59;;;;;;;;;;;8.90;87.70;;;;;;4978353;28;19934;-83
2021/12/15 04:31:28;;;;;;;;;;;8.80;87.70;;;;;;4995740;28;19930;-84
2021/12/15 04:34:06;;;;;;;;;;;8.80;87.80;;;;;;4991733;28;19926;-84
2021/12/15 04:36:36;;;;;;;;;;;8.80;88.00;;;;;;4974889;28;19934;-83
2021/12/15 04:39:05;;;;;;;;;;;8.80;88.10;;;;;;4975942;28;19941;-83
2021/12/15 04:41:32;;;;;;;;;;;8.80;88.30;;;;;;4972708;28;19933;-83
2021/12/15 04:44:09;;;;;;;;;;;8.70;88.40;;;;;;4972546;28;19926;-83
2021/12/15 04:46:41;;;;;;;;;;;8.70;88.60;;;;;;4972866;28;19926;-84
2021/12/15 04:49:11;;;;;;;;;;;8.60;88.80;;;;;;4972351;28;19930;-83
2021/12/15 04:51:38;;;;;;;;;;;8.70;88.90;;;;;;4972341;28;20424;-84
2021/12/15 04:54:06;;;;;;;;;;;8.60;88.90;;;;;;4980341;28;19936;-84
2021/12/15 04:56:34;;;;;;;;;;;8.50;89.10;;;;;;4972220;28;19926;-83
2021/12/15 04:59:01;;;;;;;;;;;8.40;89.30;;;;;;4972819;28;19949;-83
2021/12/15 05:01:28;;;;;;;;;;;8.30;89.70;;;;;;4972009;28;19926;-83
2021/12/15 05:03:56;;;;;;;;;;;8.30;90.30;;;;;;4971995;28;19934;-83
2021/12/15 05:06:23;;;;;;;;;;;8.40;90.80;;;;;;4972823;28;19927;-83
2021/12/15 05:08:51;;;;;;;;;;;8.50;90.80;;;;;;4972588;28;19926;-82
2021/12/15 05:11:20;;;;;;;;;;;8.60;90.60;;;;;;4972562;28;19934;-84
2021/12/15 05:13:47;;;;;;;;;;;8.60;90.70;;;;;;4972047;28;20372;-83
2021/12/15 05:16:16;;;;;;;;;;;8.60;90.90;;;;;;4957845;28;19930;-84
2021/12/15 05:18:44;;;;;;;;;;;8.60;91.00;;;;;;4975805;28;19930;-83
2021/12/15 05:21:12;;;;;;;;;;;8.60;91.00;;;;;;4975364;28;20268;-83
2021/12/15 05:23:40;;;;;;;;;;;8.60;90.90;;;;;;4976296;28;19926;-83
2021/12/15 05:26:07;;;;;;;;;;;8.50;90.90;;;;;;4976173;28;19927;-83
2021/12/15 05:28:34;;;;;;;;;;;8.50;91.10;;;;;;4975845;28;19929;-82
2021/12/15 05:31:02;;;;;;;;;;;8.50;91.20;;;;;;4975662;28;19930;-83
2021/12/15 05:33:29;;;;;;;;;;;8.50;91.40;;;;;;4974801;28;20384;-83
2021/12/15 05:35:56;;;;;;;;;;;8.50;91.30;;;;;;4975619;28;19926;-83
2021/12/15 05:38:25;;;;;;;;;;;8.50;91.20;;;;;;4976048;28;19926;-84
2021/12/15 05:40:53;;;;;;;;;;;8.50;91.30;;;;;;4975930;28;20006;-83
2021/12/15 05:43:20;;;;;;;;;;;8.50;91.30;;;;;;4974391;28;19930;-83
2021/12/15 05:45:50;;;;;;;;;;;8.50;91.30;;;;;;4976068;28;19926;-83
2021/12/15 05:48:18;;;;;;;;;;;8.50;91.20;;;;;;4958097;28;19926;-84
2021/12/15 05:50:46;;;;;;;;;;;8.60;91.20;;;;;;4958580;28;19930;-83
2021/12/15 05:53:13;;;;;;;;;;;8.60;91.10;;;;;;4975630;28;19926;-83
2021/12/15 05:55:41;;;;;;;;;;;8.60;91.00;;;;;;4989846;28;19949;-84
2021/12/15 05:58:09;;;;;;;;;;;8.60;91.00;;;;;;4975624;28;20291;-83
2021/12/15 06:00:38;;;;;;;;;;;8.50;90.90;;;;;;4975495;28;19949;-83
2021/12/15 06:03:06;;;;;;;;;;;8.50;90.90;;;;;;4975406;28;19954;-83
2021/12/15 06:05:34;;;;;;;;;;;8.50;91.00;;;;;;4958211;28;19926;-84
2021/12/15 06:08:02;;;;;;;;;;;8.40;91.10;;;;;;4965535;28;19933;-82
2021/12/15 06:10:30;;;;;;;;;;;8.40;91.10;;;;;;4994227;28;19926;-83
2021/12/15 06:12:58;;;;;;;;;;;8.40;91.10;;;;;;4995348;28;19927;-83
2021/12/15 06:15:28;;;;;;;;;;;8.50;91.00;;;;;;4975944;28;19937;-83
2021/12/15 06:17:58;;;;;;;;;;;8.50;91.00;;;;;;4975139;28;20391;-83
2021/12/15 06:20:26;;;;;;;;;;;8.50;91.10;;;;;;4993953;28;19930;-83
2021/12/15 06:22:55;;;;;;;;;;;8.50;91.10;;;;;;4962646;28;19930;-83
2021/12/15 06:25:22;;;;;;;;;;;8.40;91.30;;;;;;4974871;28;19926;-83
2021/12/15 06:27:50;;;;;;;;;;;8.30;91.40;;;;;;4973904;28;19960;-82
2021/12/15 06:30:18;;;;;;;;;;;8.30;91.60;;;;;;4974614;28;19926;-82
2021/12/15 06:32:45;;;;;;;;;;;8.30;91.80;;;;;;4974586;28;20315;-82
2021/12/15 06:35:13;;;;;;;;;;;8.40;92.00;;;;;;4983872;28;19930;-83
2021/12/15 06:37:40;;;;;;;;;;;8.50;92.00;;;;;;4961370;28;19995;-83
2021/12/15 06:40:09;;;;;;;;;;;8.50;91.80;;;;;;4975496;28;19933;-83
2021/12/15 06:42:37;;;;;;;;;;;8.40;91.70;;;;;;4974502;28;20380;-82
2021/12/15 06:45:07;;;;;;;;;;;8.40;91.80;;;;;;4988974;28;20430;-83
2021/12/15 06:58:24;;;;;;;;;;;8.20;92.30;;;;;;4974942;28;19926;-82
2021/12/15 07:00:54;;;;;;;;;;;8.10;92.30;;;;;;4973928;28;19930;-82
2021/12/15 07:03:22;;;;;;;;;;;8.00;92.50;;;;;;4974136;28;19926;-82
2021/12/15 07:05:50;;;;;;;;;;;8.00;92.90;;;;;;4974225;28;20380;-82
2021/12/15 07:08:18;;;;;;;;;;;8.00;92.80;;;;;;4973250;28;20398;-82
2021/12/15 07:10:47;;;;;;;;;;;8.00;92.80;;;;;;4943062;29;19937;-81
2021/12/15 07:13:15;;;;;;;;;;;7.90;93.10;;;;;;4964925;28;19977;-82
2021/12/15 07:15:44;;;;;;;;;;;7.90;93.10;;;;;;4947500;28;20515;-81
2021/12/15 07:18:13;;;;;;;;;;;7.90;93.20;;;;;;4973841;28;20400;-81
2021/12/15 07:20:50;;;;;;;;;;;8.00;93.40;;;;;;4973856;28;19930;-81
2021/12/15 07:23:19;;;;;;;;;;;8.00;93.40;;;;;;4956534;28;19926;-81
2021/12/15 07:25:48;;;;;;;;;;;8.00;93.30;;;;;;4973769;28;19959;-81
2021/12/15 07:28:16;;;;;;;;;;;8.00;93.30;;;;;;4972996;28;19926;-81
2021/12/15 07:30:44;;;;;;;;;;;7.90;93.40;;;;;;4955774;28;19926;-82
2021/12/15 07:33:12;;;;;;;;;;;7.90;93.30;;;;;;4967183;28;19930;-81
2021/12/15 07:35:40;;;;;;;;;;;7.90;93.40;;;;;;4992628;28;20299;-81
2021/12/15 07:38:07;;;;;;;;;;;7.80;93.40;;;;;;4975121;28;19941;-81
2021/12/15 07:40:37;;;;;;;;;;;7.80;93.40;;;;;;4973646;28;19927;-81
2021/12/15 07:45:35;;;;;;;;;;;7.70;93.70;;;;;;4974017;28;19938;-81
2021/12/15 07:48:03;;;;;;;;;;;7.70;93.80;;;;;;4974735;28;19933;-81
2021/12/15 07:50:31;;;;;;;;;;;7.70;93.90;;;;;;4985666;28;19937;-81
2021/12/15 07:52:59;;;;;;;;;;;7.80;94.20;;;;;;4977947;28;19926;-82
2021/12/15 07:55:27;;;;;;;;;;;7.80;94.20;;;;;;4954711;29;19930;-81
2021/12/15 07:57:55;;;;;;;;;;;7.80;94.20;;;;;;4973132;28;20388;-81
2021/12/15 08:00:23;;;;;;;;;;;7.90;94.30;;;;;;4963521;28;19926;-81
2021/12/15 08:02:51;;;;;;;;;;;7.90;94.20;;;;;;4972948;28;20449;-81
2021/12/15 08:05:19;;;;;;;;;;;7.90;94.20;;;;;;4972969;28;19933;-81
2021/12/15 08:07:47;;;;;;;;;;;8.00;94.30;;;;;;4956457;28;19934;-81
2021/12/15 08:10:15;;;;;;;;;;;8.00;94.30;;;;;;4973159;28;19937;-81
2021/12/15 08:12:43;;;;;;;;;;;8.20;94.30;;;;;;4973509;28;20002;-91
2021/12/15 08:15:11;;;;;;;;;;;8.20;94.00;;;;;;4973642;28;19933;-81
2021/12/15 08:17:40;;;;;;;;;;;8.30;93.80;;;;;;4957555;28;19930;-81
2021/12/15 08:20:09;;;;;;;;;;;8.30;93.70;;;;;;4972441;28;19941;-82
2021/12/15 08:22:38;;;;;;;;;;;8.30;93.60;;;;;;4972051;28;19930;-81
2021/12/15 08:25:06;;;;;;;;;;;8.40;93.50;;;;;;4954683;28;19926;-81
2021/12/15 08:27:34;;;;;;;;;;;8.40;93.40;;;;;;4972868;28;20372;-81
2021/12/15 08:30:02;;;;;;;;;;;8.50;93.20;;;;;;4973270;28;19937;-81
2021/12/15 08:32:30;;;;;;;;;;;8.60;93.00;;;;;;4973079;28;19926;-81
2021/12/15 08:34:58;;;;;;;;;;;8.60;92.90;;;;;;4973944;28;19933;-83
2021/12/15 08:37:25;;;;;;;;;;;8.70;92.60;;;;;;4973582;28;19925;-81
2021/12/15 08:39:53;;;;;;;;;;;8.60;92.50;;;;;;4956019;28;19937;-82
2021/12/15 08:42:20;;;;;;;;;;;8.60;92.50;;;;;;4971027;28;20295;-82
2021/12/15 08:44:48;;;;;;;;;;;8.60;92.60;;;;;;4971992;28;19933;-82
2021/12/15 08:47:15;;;;;;;;;;;8.70;92.60;;;;;;4972655;28;19930;-82
2021/12/15 08:49:43;;;;;;;;;;;8.60;92.60;;;;;;4973012;28;20303;-81
2021/12/15 08:52:10;;;;;;;;;;;8.70;92.50;;;;;;4976942;28;19934;-82
2021/12/15 08:54:39;;;;;;;;;;;8.70;92.40;;;;;;4943440;28;19946;-81
2021/12/15 08:57:07;;;;;;;;;;;8.80;92.10;;;;;;4976818;28;19930;-82
2021/12/15 08:59:35;;;;;;;;;;;8.80;91.80;;;;;;4977119;28;19933;-82
2021/12/15 09:02:02;;;;;;;;;;;8.90;91.60;;;;;;4959882;28;19926;-81
2021/12/15 09:04:30;;;;;;;;;;;8.90;91.30;;;;;;4976720;28;19930;-82
2021/12/15 09:06:57;;;;;;;;;;;9.00;91.20;;;;;;4976570;28;19930;-81
2021/12/15 09:09:25;;;;;;;;;;;9.10;91.10;;;;;;4976766;28;19926;-81
2021/12/15 09:11:53;;;;;;;;;;;9.10;90.90;;;;;;4959424;28;19933;-82
2021/12/15 09:14:20;;;;;;;;;;;9.20;90.80;;;;;;4976614;28;20007;-83
2021/12/15 09:16:49;;;;;;;;;;;9.30;90.60;;;;;;4976521;28;19937;-82
2021/12/15 09:19:17;;;;;;;;;;;9.30;90.50;;;;;;4976111;28;20288;-83
2021/12/15 09:21:46;;;;;;;;;;;9.40;90.30;;;;;;4976198;28;19933;-82
2021/12/15 09:24:14;;;;;;;;;;;9.40;90.10;;;;;;4976216;28;19926;-83
2021/12/15 09:26:41;;;;;;;;;;;9.40;90.10;;;;;;4977886;28;19926;-82
2021/12/15 09:29:08;;;;;;;;;;;9.50;89.90;;;;;;4990335;28;19978;-83
2021/12/15 09:31:36;;;;;;;;;;;9.50;89.80;;;;;;4992424;28;19926;-83
2021/12/15 09:34:05;;;;;;;;;;;9.60;89.60;;;;;;4977014;28;19930;-82
2021/12/15 09:36:33;;;;;;;;;;;9.70;89.30;;;;;;4975888;28;19926;-82
2021/12/15 09:39:05;;;;;;;;;;;9.70;89.10;;;;;;4975628;28;19949;-83
2021/12/15 09:41:32;;;;;;;;;;;9.80;88.80;;;;;;4976288;28;19933;-83
2021/12/15 09:44:06;;;;;;;;;;;9.80;88.50;;;;;;4976018;28;19927;-83
2021/12/15 09:57:29;;;;;;;;;;;9.90;88.10;;;;;;4975964;28;19926;-82
2021/12/15 10:02:56;;;;;;;;;;;10.00;87.90;;;;;;4975564;28;19934;-82
2021/12/15 10:05:54;;;;;;;;;;;10.00;88.00;;;;;;4958648;28;19926;-83
2021/12/15 10:19:37;;;;;;;;;;;10.40;87.80;;;;;;4934661;29;19934;-83
2021/12/15 10:22:15;;;;;;;;;;;10.50;87.60;;;;;;4934676;29;20572;-83
2021/12/15 10:24:54;;;;;;;;;;;10.60;87.40;;;;;;4934410;29;19949;-83
2021/12/15 10:27:37;;;;;;;;;;;10.60;87.10;;;;;;4934786;29;19927;-84
2021/12/15 10:30:22;;;;;;;;;;;10.60;86.80;;;;;;4934477;29;19927;-82
2021/12/15 10:32:52;;;;;;;;;;;10.70;86.10;;;;;;4933667;29;19957;-82
2021/12/15 10:35:22;;;;;;;;;;;10.70;86.10;;;;;;4918565;29;19927;-83
2021/12/15 10:38:09;;;;;;;;;;;10.70;86.20;;;;;;4918577;29;19927;-83
2021/12/15 10:40:40;;;;;;;;;;;10.60;86.20;;;;;;4933807;29;19927;-83
2021/12/15 10:43:08;;;;;;;;;;;10.60;86.30;;;;;;4934352;29;19930;-83
2021/12/15 10:45:37;;;;;;;;;;;10.50;86.30;;;;;;4934499;29;19934;-83
2021/12/15 10:48:10;;;;;;;;;;;10.50;86.20;;;;;;4902836;29;19927;-83
2021/12/15 10:50:38;;;;;;;;;;;10.60;86.00;;;;;;4917904;29;20416;-84
2021/12/15 10:53:05;;;;;;;;;;;10.70;85.40;;;;;;4931604;29;19927;-83
2021/12/15 10:55:34;;;;;;;;;;;10.80;85.00;;;;;;4944038;28;19926;-83
2021/12/15 10:58:22;;;;;;;;;;;10.90;84.90;;;;;;4971187;28;19937;-82
2021/12/15 11:00:49;;;;;;;;;;;11.00;84.50;;;;;;4972900;28;19930;-83
2021/12/15 11:03:23;;;;;;;;;;;10.90;84.30;;;;;;4974130;28;20307;-82
2021/12/15 11:06:21;;;;;;;;;;;10.90;84.30;;;;;;4955609;28;19926;-82
2021/12/15 11:09:08;;;;;;;;;;;11.00;83.90;;;;;;4973912;28;20471;-82
2021/12/15 11:11:58;;;;;;;;;;;10.90;84.00;;;;;;4965427;28;20319;-83
2021/12/15 11:14:31;;;;;;;;;;;11.00;83.80;;;;;;4955515;28;19937;-82
2021/12/15 11:17:18;;;;;;;;;;;11.10;83.40;;;;;;4973361;28;19926;-84
2021/12/15 11:19:51;;;;;;;;;;;11.20;83.40;;;;;;4954508;28;19934;-84
2021/12/15 11:22:43;;;;;;;;;;;11.20;83.40;;;;;;4957032;28;20554;-83
2021/12/15 11:25:16;;;;;;;;;;;11.30;83.00;;;;;;4973291;28;19926;-83
2021/12/15 11:27:45;;;;;;;;;;;11.30;82.60;;;;;;4954176;28;19929;-84
2021/12/15 11:30:19;;;;;;;;;;;11.30;82.20;;;;;;4940875;28;20334;-82
2021/12/15 11:32:48;;;;;;;;;;;11.40;82.10;;;;;;4971523;28;19926;-83
2021/12/15 11:35:24;;;;;;;;;;;11.40;81.60;;;;;;4972098;28;20311;-83
2021/12/15 11:37:59;;;;;;;;;;;11.50;81.80;;;;;;4956688;28;19926;-83
2021/12/15 11:40:29;;;;;;;;;;;11.50;81.70;;;;;;4954406;28;19933;-84
2021/12/15 11:42:58;;;;;;;;;;;11.50;81.60;;;;;;4956215;28;19930;-83
2021/12/15 11:45:26;;;;;;;;;;;11.60;81.10;;;;;;4972906;28;19926;-83
2021/12/15 11:48:12;;;;;;;;;;;11.50;81.30;;;;;;4987518;28;20215;-83
2021/12/15 11:50:43;;;;;;;;;;;11.60;81.60;;;;;;4952825;28;19933;-84
2021/12/15 11:53:40;;;;;;;;;;;11.60;81.50;;;;;;4973237;28;20383;-83
2021/12/15 11:56:10;;;;;;;;;;;11.60;81.60;;;;;;4964223;28;19930;-83
2021/12/15 11:58:37;;;;;;;;;;;11.60;81.60;;;;;;4974385;28;19926;-81
2021/12/15 12:01:05;;;;;;;;;;;11.60;81.70;;;;;;4957376;28;20389;-82
2021/12/15 12:03:32;;;;;;;;;;;11.60;81.50;;;;;;4974485;28;19926;-82
2021/12/15 12:06:01;;;;;;;;;;;11.70;81.40;;;;;;4973827;28;19930;-83
2021/12/15 12:08:29;;;;;;;;;;;11.70;81.40;;;;;;4956937;28;20383;-83
2021/12/15 12:11:04;;;;;;;;;;;11.70;81.40;;;;;;4957463;28;19926;-83
2021/12/15 12:13:38;;;;;;;;;;;12.00;80.70;;;;;;4975012;28;19926;-83
2021/12/15 12:16:07;;;;;;;;;;;12.50;79.20;;;;;;4974247;28;19933;-83
2021/12/15 12:18:34;;;;;;;;;;;12.70;78.30;;;;;;4974715;28;19926;-83
2021/12/15 12:21:09;;;;;;;;;;;12.70;77.90;;;;;;4974306;28;19926;-83
2021/12/15 12:23:38;;;;;;;;;;;12.60;77.50;;;;;;4958737;28;19940;-83
2021/12/15 12:26:09;;;;;;;;;;;12.50;77.70;;;;;;4978318;28;19934;-85
2021/12/15 12:28:37;;;;;;;;;;;12.50;78.00;;;;;;4982510;28;19926;-89
2021/12/15 12:31:11;;;;;;;;;;;12.40;77.40;;;;;;4984050;28;19926;-84
2021/12/15 12:33:38;;;;;;;;;;;12.30;77.90;;;;;;4959720;28;19934;-83
2021/12/15 12:36:08;;;;;;;;;;;12.30;78.20;;;;;;4972849;28;19926;-83
2021/12/15 12:38:37;;;;;;;;;;;12.30;78.70;;;;;;4959677;28;19926;-83
2021/12/15 12:41:14;;;;;;;;;;;12.30;78.60;;;;;;4973098;28;19926;-83
2021/12/15 12:43:42;;;;;;;;;;;12.20;79.10;;;;;;4969013;28;19930;-83
2021/12/15 12:46:19;;;;;;;;;;;12.30;79.40;;;;;;4961491;28;19933;-83
2021/12/15 13:00:00;;;;;;;;;;;12.10;79.80;;;;;;4876861;29;19928;-83
2021/12/15 13:02:31;;;;;;;;;;;12.00;80.30;;;;;;4876825;29;19928;-83
2021/12/15 13:04:58;;;;;;;;;;;12.00;80.30;;;;;;4876287;29;19928;-83
2021/12/15 13:07:46;;;;;;;;;;;12.00;80.40;;;;;;4876570;29;19928;-83
2021/12/15 13:10:14;;;;;;;;;;;12.00;80.60;;;;;;4861856;29;19944;-81
2021/12/15 13:12:47;;;;;;;;;;;11.90;80.80;;;;;;4877106;29;19932;-83
2021/12/15 13:15:19;;;;;;;;;;;11.90;80.90;;;;;;4876951;29;19935;-83
2021/12/15 13:17:59;;;;;;;;;;;11.90;81.00;;;;;;4876118;29;19928;-83
2021/12/15 13:20:29;;;;;;;;;;;11.90;81.10;;;;;;4876566;29;20541;-83
2021/12/15 13:31:15;;;;;;;;;;;11.90;81.80;;;;;;4973441;28;19933;-84
2021/12/15 13:33:43;;;;;;;;;;;11.90;81.80;;;;;;4973443;28;20292;-84
2021/12/15 13:36:11;;;;;;;;;;;12.00;81.50;;;;;;4974334;28;19934;-84
2021/12/15 13:38:58;;;;;;;;;;;12.00;81.30;;;;;;4977396;28;19927;-83
2021/12/15 13:44:05;;;;;;;;;;;12.00;81.50;;;;;;4976899;28;19933;-83
2021/12/15 13:46:38;;;;;;;;;;;12.00;81.70;;;;;;4976572;28;19927;-84
2021/12/15 13:49:20;;;;;;;;;;;12.00;81.80;;;;;;4976904;28;20295;-85
2021/12/15 13:51:51;;;;;;;;;;;12.00;81.90;;;;;;4980409;28;19926;-84
2021/12/15 13:54:35;;;;;;;;;;;12.00;82.10;;;;;;4977948;28;19934;-85
2021/12/15 13:57:12;;;;;;;;;;;12.00;82.20;;;;;;4979151;28;19937;-84
2021/12/15 13:59:56;;;;;;;;;;;12.00;82.50;;;;;;4977974;28;19926;-84
2021/12/15 14:02:27;;;;;;;;;;;12.00;82.50;;;;;;4991366;28;19926;-84
2021/12/15 14:04:57;;;;;;;;;;;12.00;82.60;;;;;;4975827;28;19930;-85
2021/12/15 14:07:30;;;;;;;;;;;12.00;82.60;;;;;;4975925;28;19949;-84
2021/12/15 14:09:59;;;;;;;;;;;12.00;82.60;;;;;;4956641;28;19926;-86
2021/12/15 14:12:45;;;;;;;;;;;12.00;82.60;;;;;;4975272;28;20272;-84
2021/12/15 14:15:15;;;;;;;;;;;12.10;81.90;;;;;;4972777;28;20289;-85
2021/12/15 14:17:43;;;;;;;;;;;12.10;82.00;;;;;;4975994;28;19926;-85
2021/12/15 14:20:16;;;;;;;;;;;12.00;81.90;;;;;;4976446;28;19933;-84
2021/12/15 14:22:43;;;;;;;;;;;12.00;82.10;;;;;;4959064;28;19926;-85
2021/12/15 14:25:11;;;;;;;;;;;12.00;82.30;;;;;;4976435;28;19953;-86
2021/12/15 14:27:38;;;;;;;;;;;12.00;81.60;;;;;;4976301;28;19927;-84
2021/12/15 14:30:07;;;;;;;;;;;12.00;81.50;;;;;;4943341;28;19941;-84
2021/12/15 14:32:35;;;;;;;;;;;12.00;81.60;;;;;;4944894;28;19926;-83
2021/12/15 14:35:02;;;;;;;;;;;12.00;81.70;;;;;;4983826;28;19927;-85
2021/12/15 14:37:29;;;;;;;;;;;12.00;81.60;;;;;;4984318;28;19937;-85
2021/12/15 14:39:57;;;;;;;;;;;12.00;81.60;;;;;;4959759;28;20312;-86
2021/12/15 14:42:26;;;;;;;;;;;11.90;81.60;;;;;;4976027;28;19926;-84
2021/12/15 14:44:55;;;;;;;;;;;11.90;81.70;;;;;;4974095;28;19934;-84
2021/12/15 14:47:24;;;;;;;;;;;11.80;81.80;;;;;;4971047;28;19930;-85
2021/12/15 14:49:54;;;;;;;;;;;11.80;81.70;;;;;;4974603;28;19930;-85
2021/12/15 14:52:31;;;;;;;;;;;11.80;81.60;;;;;;4972229;28;19933;-84
2021/12/15 14:55:00;;;;;;;;;;;11.80;81.80;;;;;;4957118;28;19926;-86
2021/12/15 14:57:29;;;;;;;;;;;11.80;81.90;;;;;;4973781;28;19933;-84
2021/12/15 14:59:57;;;;;;;;;;;11.80;81.90;;;;;;4973429;28;20671;-85
2021/12/15 15:02:27;;;;;;;;;;;11.70;82.10;;;;;;4974056;28;19930;-86
2021/12/15 15:04:56;;;;;;;;;;;11.70;82.20;;;;;;4974903;28;19930;-85
2021/12/15 15:07:27;;;;;;;;;;;11.70;82.30;;;;;;4971529;28;19930;-84
2021/12/15 15:09:56;;;;;;;;;;;11.60;82.30;;;;;;4973885;28;19933;-85
2021/12/15 15:12:35;;;;;;;;;;;11.70;82.30;;;;;;4970503;28;20350;-85
2021/12/15 15:15:08;;;;;;;;;;;11.60;82.50;;;;;;4955099;28;19926;-86
2021/12/15 15:17:51;;;;;;;;;;;11.60;82.40;;;;;;4957579;28;19926;-86
2021/12/15 15:20:18;;;;;;;;;;;11.60;82.50;;;;;;4974669;28;19933;-88
2021/12/15 15:22:47;;;;;;;;;;;11.60;82.40;;;;;;4974803;28;19933;-86
2021/12/15 15:25:17;;;;;;;;;;;11.60;82.50;;;;;;4973427;28;19937;-86
2021/12/15 15:27:47;;;;;;;;;;;11.50;82.60;;;;;;4953797;28;19930;-86
2021/12/15 15:30:19;;;;;;;;;;;11.50;82.70;;;;;;4955843;28;19933;-87
2021/12/15 15:32:49;;;;;;;;;;;11.40;82.80;;;;;;4956955;28;19926;-86
2021/12/15 15:35:21;;;;;;;;;;;11.40;82.60;;;;;;4973889;28;19934;-85
2021/12/15 15:37:50;;;;;;;;;;;11.40;82.40;;;;;;4973879;28;20012;-86
2021/12/15 15:40:23;;;;;;;;;;;11.40;82.40;;;;;;4956494;28;20212;-86
2021/12/15 15:43:17;;;;;;;;;;;11.30;82.50;;;;;;4966855;28;20296;-86
2021/12/15 15:45:46;;;;;;;;;;;11.30;82.70;;;;;;4940349;28;20311;-93
2021/12/15 15:48:18;;;;;;;;;;;11.30;82.90;;;;;;4964828;28;19926;-87
2021/12/15 15:50:51;;;;;;;;;;;11.30;82.90;;;;;;4963709;28;19931;-86
2021/12/15 15:53:18;;;;;;;;;;;11.30;82.80;;;;;;4974985;28;19933;-89
2021/12/15 15:55:47;;;;;;;;;;;11.20;82.60;;;;;;4970477;28;20646;-83
2021/12/15 15:58:15;;;;;;;;;;;11.30;82.60;;;;;;4979389;28;19925;-86
2021/12/15 16:00:45;;;;;;;;;;;11.30;82.30;;;;;;4971681;28;19926;-84
2021/12/15 16:03:18;;;;;;;;;;;11.30;82.30;;;;;;4966659;28;19930;-86
2021/12/15 16:05:45;;;;;;;;;;;11.20;82.30;;;;;;4966368;28;19941;-85
2021/12/15 16:08:14;;;;;;;;;;;11.20;82.20;;;;;;4966319;28;19933;-85
2021/12/15 16:10:44;;;;;;;;;;;11.20;82.00;;;;;;4965271;28;19927;-85
2021/12/15 16:13:15;;;;;;;;;;;11.10;81.70;;;;;;4970979;28;19926;-84
2021/12/15 16:15:45;;;;;;;;;;;11.10;81.40;;;;;;4970896;28;20273;-84
2021/12/15 16:18:23;;;;;;;;;;;11.10;81.60;;;;;;4955704;29;19937;-85
2021/12/15 16:23:23;;;;;;;;;;;11.10;81.50;;;;;;4964237;28;19926;-87
2021/12/15 16:25:51;;;;;;;;;;;11.00;81.70;;;;;;4960529;28;20312;-86
2021/12/15 16:28:19;;;;;;;;;;;11.00;81.70;;;;;;4939331;28;20308;-86
2021/12/15 16:30:57;;;;;;;;;;;11.00;81.70;;;;;;4962535;28;19926;-87